sensor_id;sensor_type;location;lat;lon;timestamp;pressure;altitude;pressure_sealevel;temperature;humidity
74834;BME280;63361;52.384;20.930;2023-03-01T00:01:08;102055.72;;;-6.17;100.00
74834;BME280;63361;52.384;20.930;2023-03-01T00:03:34;102051.91;;;-6.24;100.00
74834;BME280;63361;52.384;20.930;2023-03-01T00:06:00;102062.31;;;-6.23;100.00
74834;BME280;63361;52.384;20.930;2023-03-01T00:08:26;102060.91;;;-6.27;100.00
74834;BME280;63361;52.384;20.930;2023-03-01T00:11:13;102055.00;;;-6.19;100.00
74834;BME280;63361;52.384;20.930;2023-03-01T00:13:40;102047.44;;;-6.13;100.00
74834;BME280;63361;52.384;20.930;2023-03-01T00:16:07;102036.47;;;-6.18;100.00
74834;BME280;63361;52.384;20.930;2023-03-01T00:18:33;102047.44;;;-6.13;100.00
74834;BME280;63361;52.384;20.930;2023-03-01T00:20:59;102032.34;;;-6.11;100.00
74834;BME280;63361;52.384;20.930;2023-03-01T00:23:25;102029.22;;;-6.05;100.00
74834;BME280;63361;52.384;20.930;2023-03-01T00:25:51;102033.53;;;-5.94;100.00
74834;BME280;63361;52.384;20.930;2023-03-01T00:28:18;102040.06;;;-5.88;100.00
74834;BME280;63361;52.384;20.930;2023-03-01T00:30:44;102032.03;;;-5.87;100.00
74834;BME280;63361;52.384;20.930;2023-03-01T00:33:09;102025.38;;;-5.91;100.00
74834;BME280;63361;52.384;20.930;2023-03-01T00:35:35;102026.00;;;-5.68;100.00
74834;BME280;63361;52.384;20.930;2023-03-01T00:38:01;102038.47;;;-5.60;100.00
74834;BME280;63361;52.384;20.930;2023-03-01T00:40:28;102011.69;;;-5.85;100.00
74834;BME280;63361;52.384;20.930;2023-03-01T00:42:54;102025.03;;;-5.67;100.00
74834;BME280;63361;52.384;20.930;2023-03-01T00:45:19;102022.94;;;-5.63;100.00
74834;BME280;63361;52.384;20.930;2023-03-01T00:47:44;102033.06;;;-5.69;100.00
74834;BME280;63361;52.384;20.930;2023-03-01T00:50:11;102020.69;;;-5.78;100.00
74834;BME280;63361;52.384;20.930;2023-03-01T00:52:37;102012.66;;;-5.86;100.00
74834;BME280;63361;52.384;20.930;2023-03-01T00:55:03;102030.28;;;-5.67;100.00
74834;BME280;63361;52.384;20.930;2023-03-01T00:57:29;102020.44;;;-5.65;100.00
74834;BME280;63361;52.384;20.930;2023-03-01T00:59:54;102023.91;;;-5.64;100.00
74834;BME280;63361;52.384;20.930;2023-03-01T01:02:20;102024.91;;;-5.56;100.00
74834;BME280;63361;52.384;20.930;2023-03-01T01:04:46;102030.75;;;-5.43;100.00
74834;BME280;63361;52.384;20.930;2023-03-01T01:07:12;102019.97;;;-5.40;100.00
74834;BME280;63361;52.384;20.930;2023-03-01T01:09:37;102009.88;;;-5.25;100.00
74834;BME280;63361;52.384;20.930;2023-03-01T01:12:03;102014.72;;;-5.11;100.00
74834;BME280;63361;52.384;20.930;2023-03-01T01:14:28;101999.91;;;-5.12;100.00
74834;BME280;63361;52.384;20.930;2023-03-01T01:16:54;102012.25;;;-4.93;100.00
74834;BME280;63361;52.384;20.930;2023-03-01T01:19:19;102019.88;;;-4.90;100.00
74834;BME280;63361;52.384;20.930;2023-03-01T01:21:45;102013.06;;;-4.83;100.00
74834;BME280;63361;52.384;20.930;2023-03-01T01:24:11;102007.53;;;-4.89;100.00
74834;BME280;63361;52.384;20.930;2023-03-01T01:26:37;102000.44;;;-4.99;100.00
74834;BME280;63361;52.384;20.930;2023-03-01T01:29:03;101992.72;;;-5.19;100.00
74834;BME280;63361;52.384;20.930;2023-03-01T01:31:30;102008.63;;;-5.31;100.00
74834;BME280;63361;52.384;20.930;2023-03-01T01:33:56;101993.78;;;-5.51;100.00
74834;BME280;63361;52.384;20.930;2023-03-01T01:36:22;102009.00;;;-5.54;100.00
74834;BME280;63361;52.384;20.930;2023-03-01T01:38:48;102004.25;;;-5.70;100.00
74834;BME280;63361;52.384;20.930;2023-03-01T01:41:14;102001.13;;;-5.54;100.00
74834;BME280;63361;52.384;20.930;2023-03-01T01:46:33;101981.88;;;-5.55;100.00
74834;BME280;63361;52.384;20.930;2023-03-01T01:49:04;101979.63;;;-5.69;100.00
74834;BME280;63361;52.384;20.930;2023-03-01T01:51:37;101976.28;;;-5.81;100.00
74834;BME280;63361;52.384;20.930;2023-03-01T01:54:11;101971.84;;;-5.80;100.00
74834;BME280;63361;52.384;20.930;2023-03-01T01:56:40;101969.34;;;-5.91;100.00
74834;BME280;63361;52.384;20.930;2023-03-01T01:59:06;101975.16;;;-5.88;100.00
74834;BME280;63361;52.384;20.930;2023-03-01T02:01:31;101971.03;;;-5.71;100.00
74834;BME280;63361;52.384;20.930;2023-03-01T02:03:57;101966.88;;;-5.64;100.00
74834;BME280;63361;52.384;20.930;2023-03-01T02:06:29;101983.66;;;-5.55;100.00
74834;BME280;63361;52.384;20.930;2023-03-01T02:09:00;101974.38;;;-5.59;100.00
74834;BME280;63361;52.384;20.930;2023-03-01T02:11:29;101971.09;;;-5.52;100.00
74834;BME280;63361;52.384;20.930;2023-03-01T02:13:55;101964.03;;;-5.51;100.00
74834;BME280;63361;52.384;20.930;2023-03-01T02:16:20;101959.44;;;-5.49;100.00
74834;BME280;63361;52.384;20.930;2023-03-01T02:18:46;101972.03;;;-5.43;100.00
74834;BME280;63361;52.384;20.930;2023-03-01T02:21:34;101974.38;;;-5.50;100.00
74834;BME280;63361;52.384;20.930;2023-03-01T02:24:13;101958.75;;;-5.42;100.00
74834;BME280;63361;52.384;20.930;2023-03-01T02:26:48;101945.34;;;-5.39;100.00
74834;BME280;63361;52.384;20.930;2023-03-01T02:29:15;101950.84;;;-5.32;100.00
74834;BME280;63361;52.384;20.930;2023-03-01T02:31:40;101942.28;;;-5.34;100.00
74834;BME280;63361;52.384;20.930;2023-03-01T02:34:23;101949.50;;;-5.36;100.00
74834;BME280;63361;52.384;20.930;2023-03-01T02:37:00;101959.47;;;-5.40;100.00
74834;BME280;63361;52.384;20.930;2023-03-01T02:39:30;101952.94;;;-5.45;100.00
74834;BME280;63361;52.384;20.930;2023-03-01T02:41:57;101956.25;;;-5.34;100.00
74834;BME280;63361;52.384;20.930;2023-03-01T02:44:24;101955.44;;;-5.24;100.00
74834;BME280;63361;52.384;20.930;2023-03-01T02:46:52;101942.13;;;-5.13;100.00
74834;BME280;63361;52.384;20.930;2023-03-01T02:49:36;101931.19;;;-5.09;100.00
74834;BME280;63361;52.384;20.930;2023-03-01T02:54:44;101932.59;;;-5.05;100.00
74834;BME280;63361;52.384;20.930;2023-03-01T02:57:12;101930.91;;;-5.15;100.00
74834;BME280;63361;52.384;20.930;2023-03-01T02:59:38;101908.19;;;-5.16;100.00
74834;BME280;63361;52.384;20.930;2023-03-01T03:02:19;101922.59;;;-4.91;100.00
74834;BME280;63361;52.384;20.930;2023-03-01T03:04:46;101932.00;;;-4.89;100.00
74834;BME280;63361;52.384;20.930;2023-03-01T03:07:11;101910.78;;;-4.87;100.00
74834;BME280;63361;52.384;20.930;2023-03-01T03:09:37;101919.88;;;-4.72;100.00
74834;BME280;63361;52.384;20.930;2023-03-01T03:12:02;101903.44;;;-4.84;100.00
74834;BME280;63361;52.384;20.930;2023-03-01T03:14:28;101919.59;;;-4.69;100.00
74834;BME280;63361;52.384;20.930;2023-03-01T03:16:53;101893.16;;;-4.77;100.00
74834;BME280;63361;52.384;20.930;2023-03-01T03:19:19;101909.81;;;-4.86;100.00
74834;BME280;63361;52.384;20.930;2023-03-01T03:21:45;101908.00;;;-4.86;100.00
74834;BME280;63361;52.384;20.930;2023-03-01T03:24:10;101911.09;;;-5.00;100.00
74834;BME280;63361;52.384;20.930;2023-03-01T03:26:36;101932.41;;;-5.03;100.00
74834;BME280;63361;52.384;20.930;2023-03-01T03:29:02;101918.44;;;-4.94;100.00
74834;BME280;63361;52.384;20.930;2023-03-01T03:31:27;101920.78;;;-5.01;100.00
74834;BME280;63361;52.384;20.930;2023-03-01T03:33:53;101929.38;;;-4.99;100.00
74834;BME280;63361;52.384;20.930;2023-03-01T03:36:21;101920.41;;;-5.25;100.00
74834;BME280;63361;52.384;20.930;2023-03-01T03:38:47;101922.22;;;-5.25;100.00
74834;BME280;63361;52.384;20.930;2023-03-01T03:41:14;101908.34;;;-5.27;100.00
74834;BME280;63361;52.384;20.930;2023-03-01T03:43:40;101911.22;;;-5.02;100.00
74834;BME280;63361;52.384;20.930;2023-03-01T03:46:08;101889.63;;;-5.05;100.00
74834;BME280;63361;52.384;20.930;2023-03-01T03:48:37;101885.63;;;-5.09;100.00
74834;BME280;63361;52.384;20.930;2023-03-01T03:51:03;101889.34;;;-5.12;100.00
74834;BME280;63361;52.384;20.930;2023-03-01T03:53:31;101888.50;;;-5.03;100.00
74834;BME280;63361;52.384;20.930;2023-03-01T03:55:56;101882.13;;;-5.00;100.00
74834;BME280;63361;52.384;20.930;2023-03-01T03:58:23;101877.84;;;-5.01;100.00
74834;BME280;63361;52.384;20.930;2023-03-01T04:00:52;101886.41;;;-4.99;100.00
74834;BME280;63361;52.384;20.930;2023-03-01T04:03:19;101876.31;;;-5.04;100.00
74834;BME280;63361;52.384;20.930;2023-03-01T04:05:45;101883.81;;;-5.09;100.00
74834;BME280;63361;52.384;20.930;2023-03-01T04:08:11;101884.06;;;-5.02;100.00
74834;BME280;63361;52.384;20.930;2023-03-01T04:13:04;101895.66;;;-4.85;100.00
74834;BME280;63361;52.384;20.930;2023-03-01T04:15:31;101896.34;;;-4.83;100.00
74834;BME280;63361;52.384;20.930;2023-03-01T04:17:58;101895.16;;;-4.89;100.00
74834;BME280;63361;52.384;20.930;2023-03-01T04:20:29;101880.84;;;-4.86;100.00
74834;BME280;63361;52.384;20.930;2023-03-01T04:23:08;101859.91;;;-4.88;100.00
74834;BME280;63361;52.384;20.930;2023-03-01T04:25:58;101869.34;;;-4.85;100.00
74834;BME280;63361;52.384;20.930;2023-03-01T04:28:32;101860.59;;;-4.86;100.00
74834;BME280;63361;52.384;20.930;2023-03-01T04:31:06;101865.16;;;-4.78;100.00
74834;BME280;63361;52.384;20.930;2023-03-01T04:33:39;101859.56;;;-4.66;100.00
74834;BME280;63361;52.384;20.930;2023-03-01T04:36:04;101875.63;;;-4.59;100.00
74834;BME280;63361;52.384;20.930;2023-03-01T04:38:30;101859.16;;;-4.71;100.00
74834;BME280;63361;52.384;20.930;2023-03-01T04:40:55;101857.81;;;-4.75;100.00
74834;BME280;63361;52.384;20.930;2023-03-01T04:43:21;101851.88;;;-4.77;100.00
74834;BME280;63361;52.384;20.930;2023-03-01T04:45:46;101851.53;;;-4.64;100.00
74834;BME280;63361;52.384;20.930;2023-03-01T04:48:12;101864.28;;;-4.59;100.00
74834;BME280;63361;52.384;20.930;2023-03-01T04:50:37;101836.75;;;-4.75;100.00
74834;BME280;63361;52.384;20.930;2023-03-01T04:53:02;101848.28;;;-4.48;100.00
74834;BME280;63361;52.384;20.930;2023-03-01T04:55:28;101846.84;;;-4.43;100.00
74834;BME280;63361;52.384;20.930;2023-03-01T04:57:54;101851.59;;;-4.46;100.00
74834;BME280;63361;52.384;20.930;2023-03-01T05:00:21;101850.94;;;-4.58;100.00
74834;BME280;63361;52.384;20.930;2023-03-01T05:05:19;101856.50;;;-4.61;100.00
74834;BME280;63361;52.384;20.930;2023-03-01T05:07:45;101862.25;;;-4.75;100.00
74834;BME280;63361;52.384;20.930;2023-03-01T05:10:11;101847.19;;;-4.92;100.00
74834;BME280;63361;52.384;20.930;2023-03-01T05:12:36;101839.22;;;-5.10;100.00
74834;BME280;63361;52.384;20.930;2023-03-01T05:15:03;101848.63;;;-5.17;100.00
74834;BME280;63361;52.384;20.930;2023-03-01T05:17:32;101856.41;;;-5.25;100.00
74834;BME280;63361;52.384;20.930;2023-03-01T05:19:58;101861.78;;;-5.17;100.00
74834;BME280;63361;52.384;20.930;2023-03-01T05:22:24;101873.66;;;-4.94;100.00
74834;BME280;63361;52.384;20.930;2023-03-01T05:24:50;101858.44;;;-5.00;100.00
74834;BME280;63361;52.384;20.930;2023-03-01T05:27:15;101868.97;;;-4.90;100.00
74834;BME280;63361;52.384;20.930;2023-03-01T05:29:40;101874.59;;;-4.85;100.00
74834;BME280;63361;52.384;20.930;2023-03-01T05:32:06;101880.00;;;-4.87;100.00
74834;BME280;63361;52.384;20.930;2023-03-01T05:34:33;101854.44;;;-5.04;100.00
74834;BME280;63361;52.384;20.930;2023-03-01T05:37:00;101880.13;;;-4.79;100.00
74834;BME280;63361;52.384;20.930;2023-03-01T05:39:28;101884.75;;;-4.53;100.00
74834;BME280;63361;52.384;20.930;2023-03-01T05:41:55;101878.38;;;-4.51;100.00
74834;BME280;63361;52.384;20.930;2023-03-01T05:44:20;101890.91;;;-4.35;100.00
74834;BME280;63361;52.384;20.930;2023-03-01T05:46:46;101887.31;;;-4.34;100.00
74834;BME280;63361;52.384;20.930;2023-03-01T05:49:12;101893.69;;;-4.09;100.00
74834;BME280;63361;52.384;20.930;2023-03-01T05:51:39;101884.69;;;-3.89;100.00
74834;BME280;63361;52.384;20.930;2023-03-01T05:54:04;101880.81;;;-3.67;100.00
74834;BME280;63361;52.384;20.930;2023-03-01T05:56:32;101880.13;;;-3.51;100.00
74834;BME280;63361;52.384;20.930;2023-03-01T05:58:58;101876.72;;;-3.44;100.00
74834;BME280;63361;52.384;20.930;2023-03-01T06:01:23;101889.94;;;-3.18;100.00
74834;BME280;63361;52.384;20.930;2023-03-01T06:03:48;101886.13;;;-3.24;100.00
74834;BME280;63361;52.384;20.930;2023-03-01T06:06:13;101889.03;;;-3.09;100.00
74834;BME280;63361;52.384;20.930;2023-03-01T06:08:39;101883.50;;;-2.98;100.00
74834;BME280;63361;52.384;20.930;2023-03-01T06:11:04;101869.09;;;-2.77;100.00
74834;BME280;63361;52.384;20.930;2023-03-01T06:13:30;101891.81;;;-2.59;100.00
74834;BME280;63361;52.384;20.930;2023-03-01T06:15:55;101876.47;;;-2.55;100.00
74834;BME280;63361;52.384;20.930;2023-03-01T06:18:21;101896.31;;;-2.17;100.00
74834;BME280;63361;52.384;20.930;2023-03-01T06:20:52;101896.66;;;-2.12;100.00
74834;BME280;63361;52.384;20.930;2023-03-01T06:23:18;101885.75;;;-2.09;100.00
74834;BME280;63361;52.384;20.930;2023-03-01T06:25:43;101887.31;;;-1.90;100.00
74834;BME280;63361;52.384;20.930;2023-03-01T06:28:09;101878.22;;;-1.80;100.00
74834;BME280;63361;52.384;20.930;2023-03-01T06:30:34;101875.59;;;-1.63;100.00
74834;BME280;63361;52.384;20.930;2023-03-01T06:33:00;101888.34;;;-1.59;100.00
74834;BME280;63361;52.384;20.930;2023-03-01T06:35:29;101878.09;;;-1.62;100.00
74834;BME280;63361;52.384;20.930;2023-03-01T06:37:55;101877.09;;;-1.53;100.00
74834;BME280;63361;52.384;20.930;2023-03-01T06:40:20;101865.34;;;-1.34;100.00
74834;BME280;63361;52.384;20.930;2023-03-01T06:42:48;101881.38;;;-1.03;100.00
74834;BME280;63361;52.384;20.930;2023-03-01T06:45:20;101876.91;;;-0.86;100.00
74834;BME280;63361;52.384;20.930;2023-03-01T06:47:46;101876.56;;;-0.83;100.00
74834;BME280;63361;52.384;20.930;2023-03-01T06:50:12;101879.50;;;-0.62;100.00
74834;BME280;63361;52.384;20.930;2023-03-01T06:52:37;101874.78;;;-0.36;100.00
74834;BME280;63361;52.384;20.930;2023-03-01T06:55:03;101875.88;;;-0.22;100.00
74834;BME280;63361;52.384;20.930;2023-03-01T06:57:29;101880.19;;;-0.21;100.00
74834;BME280;63361;52.384;20.930;2023-03-01T06:59:54;101875.28;;;-0.01;98.67
74834;BME280;63361;52.384;20.930;2023-03-01T07:02:19;101893.03;;;0.52;98.37
74834;BME280;63361;52.384;20.930;2023-03-01T07:04:45;101884.19;;;0.97;94.26
74834;BME280;63361;52.384;20.930;2023-03-01T07:07:10;101887.34;;;1.30;91.38
74834;BME280;63361;52.384;20.930;2023-03-01T07:09:36;101885.69;;;2.88;88.09
74834;BME280;63361;52.384;20.930;2023-03-01T07:12:01;101897.16;;;3.44;79.77
74834;BME280;63361;52.384;20.930;2023-03-01T07:14:27;101881.28;;;3.64;77.57
74834;BME280;63361;52.384;20.930;2023-03-01T07:16:53;101877.97;;;4.16;73.23
74834;BME280;63361;52.384;20.930;2023-03-01T07:19:20;101876.03;;;4.98;69.48
74834;BME280;63361;52.384;20.930;2023-03-01T07:21:45;101874.59;;;6.37;65.53
74834;BME280;63361;52.384;20.930;2023-03-01T07:24:11;101861.50;;;7.22;61.54
74834;BME280;63361;52.384;20.930;2023-03-01T07:26:36;101854.03;;;8.27;57.72
74834;BME280;63361;52.384;20.930;2023-03-01T07:29:04;101855.06;;;8.44;55.48
74834;BME280;63361;52.384;20.930;2023-03-01T07:31:30;101836.84;;;8.58;54.68
74834;BME280;63361;52.384;20.930;2023-03-01T07:33:56;101852.34;;;8.86;53.78
74834;BME280;63361;52.384;20.930;2023-03-01T07:36:21;101856.41;;;9.58;49.98
74834;BME280;63361;52.384;20.930;2023-03-01T07:38:46;101867.34;;;10.32;47.12
74834;BME280;63361;52.384;20.930;2023-03-01T07:41:12;101852.03;;;10.09;47.25
74834;BME280;63361;52.384;20.930;2023-03-01T07:43:37;101855.69;;;11.10;45.38
74834;BME280;63361;52.384;20.930;2023-03-01T07:46:03;101873.94;;;11.19;44.96
74834;BME280;63361;52.384;20.930;2023-03-01T07:48:30;101869.66;;;11.23;45.18
74834;BME280;63361;52.384;20.930;2023-03-01T07:51:03;101871.19;;;12.18;43.20
74834;BME280;63361;52.384;20.930;2023-03-01T07:53:29;101863.34;;;13.13;40.40
74834;BME280;63361;52.384;20.930;2023-03-01T07:56:07;101855.81;;;13.67;38.71
74834;BME280;63361;52.384;20.930;2023-03-01T07:58:37;101862.06;;;14.60;36.46
74834;BME280;63361;52.384;20.930;2023-03-01T08:01:04;101862.06;;;14.65;36.52
74834;BME280;63361;52.384;20.930;2023-03-01T08:03:30;101863.13;;;14.54;36.19
74834;BME280;63361;52.384;20.930;2023-03-01T08:05:55;101869.91;;;14.41;36.64
74834;BME280;63361;52.384;20.930;2023-03-01T08:08:21;101865.59;;;14.91;34.84
74834;BME280;63361;52.384;20.930;2023-03-01T08:10:46;101844.91;;;15.05;35.05
74834;BME280;63361;52.384;20.930;2023-03-01T08:13:11;101858.19;;;14.31;35.69
74834;BME280;63361;52.384;20.930;2023-03-01T08:15:37;101846.78;;;13.09;38.20
74834;BME280;63361;52.384;20.930;2023-03-01T08:18:02;101849.34;;;12.57;38.94
74834;BME280;63361;52.384;20.930;2023-03-01T08:20:27;101858.09;;;12.10;40.53
74834;BME280;63361;52.384;20.930;2023-03-01T08:22:53;101856.00;;;12.17;40.82
74834;BME280;63361;52.384;20.930;2023-03-01T08:25:18;101853.63;;;11.99;40.91
74834;BME280;63361;52.384;20.930;2023-03-01T08:27:43;101850.84;;;11.50;41.41
74834;BME280;63361;52.384;20.930;2023-03-01T08:30:09;101858.09;;;11.45;41.99
74834;BME280;63361;52.384;20.930;2023-03-01T08:32:37;101843.78;;;11.27;42.73
74834;BME280;63361;52.384;20.930;2023-03-01T08:35:03;101859.66;;;12.60;40.14
74834;BME280;63361;52.384;20.930;2023-03-01T08:37:28;101850.34;;;14.55;36.36
74834;BME280;63361;52.384;20.930;2023-03-01T08:39:56;101837.81;;;15.99;33.61
74834;BME280;63361;52.384;20.930;2023-03-01T08:42:21;101856.63;;;15.96;33.67
74834;BME280;63361;52.384;20.930;2023-03-01T08:44:46;101848.56;;;16.19;33.42
74834;BME280;63361;52.384;20.930;2023-03-01T08:47:12;101843.41;;;15.64;34.17
74834;BME280;63361;52.384;20.930;2023-03-01T08:49:37;101845.47;;;14.92;35.35
74834;BME280;63361;52.384;20.930;2023-03-01T08:52:02;101852.53;;;15.03;35.46
74834;BME280;63361;52.384;20.930;2023-03-01T08:54:28;101852.91;;;12.30;39.13
74834;BME280;63361;52.384;20.930;2023-03-01T08:56:53;101860.53;;;12.12;40.98
74834;BME280;63361;52.384;20.930;2023-03-01T08:59:19;101846.97;;;14.07;38.01
74834;BME280;63361;52.384;20.930;2023-03-01T09:01:44;101836.06;;;15.64;35.06
74834;BME280;63361;52.384;20.930;2023-03-01T09:04:11;101835.16;;;16.33;33.77
74834;BME280;63361;52.384;20.930;2023-03-01T09:06:37;101844.91;;;15.10;34.93
74834;BME280;63361;52.384;20.930;2023-03-01T09:09:04;101853.84;;;15.21;35.80
74834;BME280;63361;52.384;20.930;2023-03-01T09:11:30;101850.16;;;13.79;37.96
74834;BME280;63361;52.384;20.930;2023-03-01T09:13:55;101823.00;;;12.84;39.15
74834;BME280;63361;52.384;20.930;2023-03-01T09:16:22;101847.03;;;12.71;40.52
74834;BME280;63361;52.384;20.930;2023-03-01T09:18:52;101839.91;;;12.59;41.25
74834;BME280;63361;52.384;20.930;2023-03-01T09:21:19;101819.38;;;12.10;41.96
74834;BME280;63361;52.384;20.930;2023-03-01T09:23:47;101820.69;;;12.07;42.40
74834;BME280;63361;52.384;20.930;2023-03-01T09:26:20;101830.22;;;12.37;42.65
74834;BME280;63361;52.384;20.930;2023-03-01T09:28:47;101819.88;;;13.45;39.60
74834;BME280;63361;52.384;20.930;2023-03-01T09:31:14;101825.56;;;13.01;40.94
74834;BME280;63361;52.384;20.930;2023-03-01T09:33:41;101817.41;;;12.96;40.60
74834;BME280;63361;52.384;20.930;2023-03-01T09:36:10;101829.66;;;13.46;39.63
74834;BME280;63361;52.384;20.930;2023-03-01T09:38:36;101813.78;;;13.17;39.79
74834;BME280;63361;52.384;20.930;2023-03-01T09:41:02;101804.34;;;14.07;38.31
74834;BME280;63361;52.384;20.930;2023-03-01T09:45:59;101807.06;;;13.97;38.24
74834;BME280;63361;52.384;20.930;2023-03-01T09:48:33;101812.47;;;13.87;38.56
74834;BME280;63361;52.384;20.930;2023-03-01T09:51:06;101807.41;;;14.92;38.06
74834;BME280;63361;52.384;20.930;2023-03-01T09:53:34;101807.66;;;15.01;37.11
74834;BME280;63361;52.384;20.930;2023-03-01T10:02:36;101808.50;;;15.76;35.54
74834;BME280;63361;52.384;20.930;2023-03-01T10:05:17;101799.22;;;14.16;38.31
74834;BME280;63361;52.384;20.930;2023-03-01T10:08:05;101786.19;;;13.25;39.91
74834;BME280;63361;52.384;20.930;2023-03-01T10:10:34;101775.84;;;13.90;39.23
74834;BME280;63361;52.384;20.930;2023-03-01T10:13:14;101791.19;;;12.69;41.85
74834;BME280;63361;52.384;20.930;2023-03-01T10:15:47;101791.41;;;11.99;44.04
74834;BME280;63361;52.384;20.930;2023-03-01T10:18:27;101788.34;;;12.17;43.52
74834;BME280;63361;52.384;20.930;2023-03-01T10:20:59;101776.81;;;13.06;42.27
74834;BME280;63361;52.384;20.930;2023-03-01T10:23:25;101775.91;;;12.90;42.60
74834;BME280;63361;52.384;20.930;2023-03-01T10:31:05;101770.84;;;13.61;40.89
74834;BME280;63361;52.384;20.930;2023-03-01T10:33:37;101775.94;;;14.51;39.72
74834;BME280;63361;52.384;20.930;2023-03-01T10:36:05;101773.16;;;14.25;40.11
74834;BME280;63361;52.384;20.930;2023-03-01T10:38:47;101766.63;;;14.87;38.88
74834;BME280;63361;52.384;20.930;2023-03-01T10:41:12;101765.22;;;15.05;39.06
74834;BME280;63361;52.384;20.930;2023-03-01T10:43:52;101772.38;;;14.60;39.37
74834;BME280;63361;52.384;20.930;2023-03-01T10:46:37;101769.22;;;15.33;38.33
74834;BME280;63361;52.384;20.930;2023-03-01T10:49:07;101766.81;;;15.21;38.45
74834;BME280;63361;52.384;20.930;2023-03-01T10:51:32;101753.28;;;14.96;38.78
74834;BME280;63361;52.384;20.930;2023-03-01T10:53:58;101756.31;;;14.23;39.52
74834;BME280;63361;52.384;20.930;2023-03-01T10:56:23;101763.94;;;14.52;39.51
74834;BME280;63361;52.384;20.930;2023-03-01T11:06:31;101758.50;;;14.52;39.56
74834;BME280;63361;52.384;20.930;2023-03-01T11:08:56;101772.06;;;14.21;40.21
74834;BME280;63361;52.384;20.930;2023-03-01T11:11:32;101759.06;;;14.59;40.07
74834;BME280;63361;52.384;20.930;2023-03-01T11:14:17;101744.50;;;15.24;38.87
74834;BME280;63361;52.384;20.930;2023-03-01T11:16:48;101747.28;;;15.04;39.24
74834;BME280;63361;52.384;20.930;2023-03-01T11:19:23;101742.66;;;15.04;38.79
74834;BME280;63361;52.384;20.930;2023-03-01T11:21:59;101737.72;;;13.49;41.44
74834;BME280;63361;52.384;20.930;2023-03-01T11:24:53;101743.59;;;13.31;43.00
74834;BME280;63361;52.384;20.930;2023-03-01T11:27:31;101738.94;;;14.19;41.48
74834;BME280;63361;52.384;20.930;2023-03-01T11:32:46;101731.44;;;15.21;39.44
74834;BME280;63361;52.384;20.930;2023-03-01T11:35:23;101720.66;;;14.91;39.57
74834;BME280;63361;52.384;20.930;2023-03-01T11:41:44;101737.84;;;14.76;39.56
74834;BME280;63361;52.384;20.930;2023-03-01T11:43:52;101733.25;;;14.31;40.77
74834;BME280;63361;52.384;20.930;2023-03-01T11:58:01;101737.44;;;15.13;39.30
74834;BME280;63361;52.384;20.930;2023-03-01T12:11:44;101722.06;;;14.68;40.65
74834;BME280;63361;52.384;20.930;2023-03-01T12:17:25;101706.81;;;14.87;40.34
74834;BME280;63361;52.384;20.930;2023-03-01T12:20:27;101720.88;;;16.08;38.20
74834;BME280;63361;52.384;20.930;2023-03-01T12:23:15;101712.19;;;16.40;36.78
74834;BME280;63361;52.384;20.930;2023-03-01T12:31:37;101710.69;;;13.90;42.60
74834;BME280;63361;52.384;20.930;2023-03-01T12:34:21;101709.56;;;13.03;44.80
74834;BME280;63361;52.384;20.930;2023-03-01T12:40:01;101702.63;;;13.22;44.96
74834;BME280;63361;52.384;20.930;2023-03-01T12:42:58;101700.09;;;14.08;43.03
74834;BME280;63361;52.384;20.930;2023-03-01T12:48:27;101697.91;;;14.61;41.11
74834;BME280;63361;52.384;20.930;2023-03-01T12:50:59;101687.59;;;13.92;43.40
74834;BME280;63361;52.384;20.930;2023-03-01T12:53:28;101689.22;;;13.83;43.09
74834;BME280;63361;52.384;20.930;2023-03-01T12:56:00;101697.47;;;13.21;44.59
74834;BME280;63361;52.384;20.930;2023-03-01T12:58:46;101692.56;;;13.13;45.77
74834;BME280;63361;52.384;20.930;2023-03-01T13:04:12;101672.63;;;13.64;43.67
74834;BME280;63361;52.384;20.930;2023-03-01T13:06:44;101695.72;;;13.82;44.15
74834;BME280;63361;52.384;20.930;2023-03-01T13:11:44;101687.78;;;13.40;44.37
74834;BME280;63361;52.384;20.930;2023-03-01T13:16:51;101685.97;;;14.12;42.86
74834;BME280;63361;52.384;20.930;2023-03-01T13:19:19;101698.91;;;13.49;44.28
74834;BME280;63361;52.384;20.930;2023-03-01T13:21:46;101688.69;;;14.27;42.75
74834;BME280;63361;52.384;20.930;2023-03-01T13:24:41;101688.66;;;14.37;42.70
74834;BME280;63361;52.384;20.930;2023-03-01T13:29:50;101669.91;;;14.66;41.81
74834;BME280;63361;52.384;20.930;2023-03-01T13:32:32;101677.28;;;13.94;43.66
74834;BME280;63361;52.384;20.930;2023-03-01T13:35:03;101675.22;;;12.19;46.20
74834;BME280;63361;52.384;20.930;2023-03-01T13:37:47;101665.03;;;12.84;45.49
74834;BME280;63361;52.384;20.930;2023-03-01T13:42:48;101672.69;;;11.05;50.40
74834;BME280;63361;52.384;20.930;2023-03-01T13:45:38;101670.03;;;11.59;50.79
74834;BME280;63361;52.384;20.930;2023-03-01T13:48:16;101663.56;;;12.61;47.96
74834;BME280;63361;52.384;20.930;2023-03-01T13:50:50;101661.78;;;12.82;46.86
74834;BME280;63361;52.384;20.930;2023-03-01T13:53:23;101664.03;;;12.48;47.81
74834;BME280;63361;52.384;20.930;2023-03-01T13:55:56;101661.41;;;12.68;47.06
74834;BME280;63361;52.384;20.930;2023-03-01T13:58:31;101654.44;;;12.77;47.83
74834;BME280;63361;52.384;20.930;2023-03-01T14:03:24;101639.94;;;13.09;46.58
74834;BME280;63361;52.384;20.930;2023-03-01T14:06:13;101645.47;;;12.72;47.41
74834;BME280;63361;52.384;20.930;2023-03-01T14:08:39;101642.25;;;12.80;47.13
74834;BME280;63361;52.384;20.930;2023-03-01T14:16:28;101634.81;;;13.12;47.26
74834;BME280;63361;52.384;20.930;2023-03-01T14:19:23;101643.56;;;13.34;46.36
74834;BME280;63361;52.384;20.930;2023-03-01T14:24:31;101642.28;;;11.42;51.45